Bryson, Canada
Current Conditions -  °F | °C
As of 4:00 AM on Wednesday 22 Oct 2014 (Local Time) from CYWA Reporting Station
Clear Clear  
Wind Chill: 39°   Ceiling: Unl
Heat Index: 39°   Visibility: 9mi
Dew Point: 27°   Wind: 2mph
Humidity: 61%   Direction: 20°NNE
Pressure: 30.26"   Gusts: NA
Location:  45.68°N, 76.62°W
Report Text: CYWA 220800Z AUTO 02002KT 9SM CLR 04/M03 A3026 RMK SLP253
Loading
Personal Weather Stations






























Interactive Weather Map
Tropical Storm Tracking
New forecast layout! Learn more

10-Day Weather Forecast

Advertisements
Track Severe Weather on mobile